Observation data for Reese Center on 01/18/2019      Previous  Date  Next       Current Mesonet Observations  Soil Data  Daily Summary Page  Observations in Plain Language
KREE 180600Z 21008KT 05/M02 A3001 RMK A01 T00501018  RH  062%=      5-min Rain = 0
KREE 180605Z 21009KT 05/M02 A3001 RMK A01 T00511018  RH  062%=      5-min Rain = 0
KREE 180610Z 20009KT 05/M02 A3001 RMK A01 T00521017  RH  061%=      5-min Rain = 0
KREE 180615Z 20009KT 05/M02 A3001 RMK A01 T00531017  RH  061%=      5-min Rain = 0
KREE 180620Z 20008KT 05/M02 A3001 RMK A01 T00511017  RH  062%=      5-min Rain = 0
KREE 180625Z 21007KT 05/M02 A3001 RMK A01 T00471018  RH  063%=      5-min Rain = 0
KREE 180630Z 20007KT 05/M02 A30 RMK A01 T00461017  RH  064%=      5-min Rain = 0
KREE 180635Z 20007KT 05/M02 A30 RMK A01 T00501016  RH  063%=      5-min Rain = 0
KREE 180640Z 21007KT 05/M02 A30 RMK A01 T00521015  RH  063%=      5-min Rain = 0
KREE 180645Z 21008KT 05/M02 A30 RMK A01 T00521015  RH  063%=      5-min Rain = 0
KREE 180650Z 21008KT 05/M01 A30 RMK A01 T00521014  RH  063%=      5-min Rain = 0
KREE 180655Z 21007KT 05/M01 A30 RMK A01 T00501014  RH  064%=      5-min Rain = 0
KREE 180700Z 21007KT 05/M02 A30 RMK A01 T00471015  RH  065%=      5-min Rain = 0
KREE 180705Z 22008KT 05/M02 A30 RMK A01 T00451015  RH  066%=      5-min Rain = 0
KREE 180710Z 22008KT 04/M02 A30 RMK A01 T00431016  RH  066%=      5-min Rain = 0
KREE 180715Z 22007KT 04/M02 A30 RMK A01 T00401016  RH  067%=      5-min Rain = 0
KREE 180720Z 22007KT 04/M02 A30 RMK A01 T00371018  RH  068%=      5-min Rain = 0
KREE 180725Z 21008KT 04/M02 A2999 RMK A01 T00351019  RH  069%=      5-min Rain = 0
KREE 180730Z 21008KT 03/M02 A2999 RMK A01 T00321019  RH  070%=      5-min Rain = 0
KREE 180735Z 22009KT 03/M02 A2998 RMK A01 T00321019  RH  070%=      5-min Rain = 0
KREE 180740Z 22010KT 04/M02 A2998 RMK A01 T00351017  RH  069%=      5-min Rain = 0
KREE 180745Z 22009KT 04/M02 A2997 RMK A01 T00421015  RH  067%=      5-min Rain = 0
KREE 180750Z 23008KT 04/M01 A2997 RMK A01 T00441014  RH  067%=      5-min Rain = 0
KREE 180755Z 23007KT 04/M02 A2997 RMK A01 T00431015  RH  067%=      5-min Rain = 0
KREE 180800Z 23006KT 04/M02 A2997 RMK A01 T00391016  RH  068%=      5-min Rain = 0
KREE 180805Z 23005KT 04/M02 A2996 RMK A01 T00351018  RH  069%=      5-min Rain = 0
KREE 180810Z 23003KT 03/M02 A2996 RMK A01 T00321018  RH  070%=      5-min Rain = 0
KREE 180815Z 20003KT 03/M02 A2996 RMK A01 T00321018  RH  070%=      5-min Rain = 0
KREE 180820Z 21003KT 03/M02 A2996 RMK A01 T00311019  RH  070%=      5-min Rain = 0
KREE 180825Z 22004KT 03/M02 A2996 RMK A01 T00311019  RH  070%=      5-min Rain = 0
KREE 180830Z 22005KT 03/M02 A2995 RMK A01 T00331019  RH  070%=      5-min Rain = 0
KREE 180835Z 22007KT 03/M02 A2996 RMK A01 T00311020  RH  070%=      5-min Rain = 0
KREE 180840Z 21007KT 03/M02 A2995 RMK A01 T00301020  RH  071%=      5-min Rain = 0
KREE 180845Z 22007KT 03/M02 A2995 RMK A01 T00281020  RH  071%=      5-min Rain = 0
KREE 180850Z 22006KT 02/M02 A2995 RMK A01 T00241022  RH  073%=      5-min Rain = 0
KREE 180855Z 22007KT 02/M02 A2994 RMK A01 T00231022  RH  073%=      5-min Rain = 0
KREE 180900Z 22007KT 02/M02 A2994 RMK A01 T00241021  RH  073%=      5-min Rain = 0
KREE 180905Z 21008KT 02/M02 A2994 RMK A01 T00241021  RH  073%=      5-min Rain = 0
KREE 180910Z 21006KT 02/M02 A2994 RMK A01 T00211022  RH  074%=      5-min Rain = 0
KREE 180915Z 21006KT 02/M02 A2994 RMK A01 T00211022  RH  074%=      5-min Rain = 0
KREE 180920Z 21004KT 02/M02 A2994 RMK A01 T00201022  RH  074%=      5-min Rain = 0
KREE 180925Z 23002KT 02/M03 A2994 RMK A01 T00151025  RH  076%=      5-min Rain = 0
KREE 180930Z 21004KT 02/M02 A2993 RMK A01 T00161022  RH  077%=      5-min Rain = 0
KREE 180935Z 22005KT 02/M02 A2993 RMK A01 T00171022  RH  076%=      5-min Rain = 0
KREE 180940Z 22006KT 02/M02 A2993 RMK A01 T00191021  RH  076%=      5-min Rain = 0
KREE 180945Z 24005KT 02/M02 A2993 RMK A01 T00191020  RH  076%=      5-min Rain = 0
KREE 180950Z 23004KT 02/M02 A2993 RMK A01 T00171021  RH  077%=      5-min Rain = 0
KREE 180955Z 23005KT 02/M02 A2992 RMK A01 T00181021  RH  076%=      5-min Rain = 0
KREE 181000Z 23004KT 02/M02 A2992 RMK A01 T00161022  RH  076%=      5-min Rain = 0
KREE 181005Z 22005KT 02/M02 A2992 RMK A01 T00171021  RH  077%=      5-min Rain = 0
KREE 181010Z 24004KT 02/M02 A2992 RMK A01 T00161022  RH  077%=      5-min Rain = 0
KREE 181015Z 25005KT 01/M02 A2991 RMK A01 T00121023  RH  078%=      5-min Rain = 0
KREE 181020Z 23007KT 01/M02 A2991 RMK A01 T00141021  RH  078%=      5-min Rain = 0
KREE 181025Z 22007KT 02/M02 A2991 RMK A01 T00161022  RH  077%=      5-min Rain = 0
KREE 181030Z 22007KT 01/M02 A2991 RMK A01 T00131023  RH  078%=      5-min Rain = 0
KREE 181035Z 23007KT 01/M02 A2991 RMK A01 T00121023  RH  079%=      5-min Rain = 0
KREE 181040Z 22006KT 01/M02 A299 RMK A01 T00121023  RH  078%=      5-min Rain = 0
KREE 181045Z 21006KT 01/M02 A299 RMK A01 T00101023  RH  079%=      5-min Rain = 0
KREE 181050Z 22004KT 01/M02 A299 RMK A01 T00111022  RH  080%=      5-min Rain = 0
KREE 181055Z 22005KT 02/M02 A299 RMK A01 T00151020  RH  078%=      5-min Rain = 0
KREE 181100Z 22006KT 02/M02 A2989 RMK A01 T00161020  RH  078%=      5-min Rain = 0
KREE 181105Z 22006KT 02/M02 A2989 RMK A01 T00161020  RH  078%=      5-min Rain = 0
KREE 181110Z 20006KT 01/M02 A2988 RMK A01 T00141022  RH  078%=      5-min Rain = 0
KREE 181115Z 18006KT 01/M02 A2987 RMK A01 T00091024  RH  079%=      5-min Rain = 0
KREE 181120Z 19007KT 01/M02 A2987 RMK A01 T00091021  RH  081%=      5-min Rain = 0
KREE 181125Z 19008KT 01/M02 A2987 RMK A01 T00141018  RH  080%=      5-min Rain = 0
KREE 181130Z 20008KT 02/M02 A2986 RMK A01 T00181018  RH  078%=      5-min Rain = 0
KREE 181135Z 20009KT 02/M02 A2986 RMK A01 T00181018  RH  078%=      5-min Rain = 0
KREE 181140Z 20009KT 02/M02 A2986 RMK A01 T00211016  RH  078%=      5-min Rain = 0
KREE 181145Z 20009KT 02/M02 A2986 RMK A01 T00231016  RH  077%=      5-min Rain = 0
KREE 181150Z 21009KT 03/M01 A2986 RMK A01 T00291014  RH  074%=      5-min Rain = 0
KREE 181155Z 21010KT 03/M01 A2985 RMK A01 T00341013  RH  072%=      5-min Rain = 0
KREE 181200Z 21009KT 04/M01 A2985 RMK A01 T00391011  RH  071%=      5-min Rain = 0
KREE 181205Z 21009KT 04/M01 A2985 RMK A01 T00431009  RH  070%=      5-min Rain = 0
KREE 181210Z 22009KT 04/M01 A2985 RMK A01 T00411009  RH  070%=      5-min Rain = 0
KREE 181215Z 21008KT 04/M01 A2985 RMK A01 T00411009  RH  071%=      5-min Rain = 0
KREE 181220Z 21008KT 04/M01 A2984 RMK A01 T00441008  RH  070%=      5-min Rain = 0
KREE 181225Z 21008KT 05/M01 A2985 RMK A01 T00481007  RH  068%=      5-min Rain = 0
KREE 181230Z 21009KT 05/M01 A2985 RMK A01 T00491006  RH  068%=      5-min Rain = 0
KREE 181235Z 22008KT 05/M01 A2985 RMK A01 T00511006  RH  067%=      5-min Rain = 0
KREE 181240Z 23008KT 05/M01 A2985 RMK A01 T00531006  RH  067%=      5-min Rain = 0
KREE 181245Z 23009KT 06/M01 A2985 RMK A01 T00561006  RH  065%=      5-min Rain = 0
KREE 181250Z 23009KT 06/M01 A2985 RMK A01 T00581006  RH  064%=      5-min Rain = 0
KREE 181255Z 23009KT 06/M01 A2985 RMK A01 T00591006  RH  064%=      5-min Rain = 0
KREE 181300Z 23009KT 06/M01 A2985 RMK A01 T00601006  RH  063%=      5-min Rain = 0
KREE 181305Z 23010KT 06/M01 A2985 RMK A01 T00601006  RH  063%=      5-min Rain = 0
KREE 181310Z 23010KT 06/M01 A2985 RMK A01 T00591006  RH  064%=      5-min Rain = 0
KREE 181315Z 23010KT 06/M01 A2985 RMK A01 T00571007  RH  064%=      5-min Rain = 0
KREE 181320Z 23009KT 06/M01 A2985 RMK A01 T00561007  RH  064%=      5-min Rain = 0
KREE 181325Z 23009KT 06/M01 A2985 RMK A01 T00551007  RH  065%=      5-min Rain = 0
KREE 181330Z 24008KT 05/M01 A2985 RMK A01 T00541007  RH  065%=      5-min Rain = 0
KREE 181335Z 24007KT 05/M01 A2985 RMK A01 T00531006  RH  066%=      5-min Rain = 0
KREE 181340Z 25007KT 06/M01 A2984 RMK A01 T00561005  RH  066%=      5-min Rain = 0
KREE 181345Z 24008KT 06/M00 A2984 RMK A01 T00591004  RH  065%=      5-min Rain = 0
KREE 181350Z 23006KT 06/M00 A2984 RMK A01 T00611003  RH  064%=      5-min Rain = 0
KREE 181355Z 23006KT 06/M00 A2984 RMK A01 T00591003  RH  065%=      5-min Rain = 0
KREE 181400Z 21007KT 06/M00 A2983 RMK A01 T00591003  RH  065%=      5-min Rain = 0
KREE 181405Z 22006KT 06/M00 A2983 RMK A01 T00601004  RH  064%=      5-min Rain = 0
KREE 181410Z 22006KT 06/M01 A2983 RMK A01 T00571005  RH  065%=      5-min Rain = 0
KREE 181415Z 22006KT 05/M01 A2983 RMK A01 T00531007  RH  066%=      5-min Rain = 0
KREE 181420Z 20006KT 05/M01 A2983 RMK A01 T00481008  RH  068%=      5-min Rain = 0
KREE 181425Z 19007KT 05/M01 A2983 RMK A01 T00451008  RH  069%=      5-min Rain = 0
KREE 181430Z 21007KT 05/M01 A2983 RMK A01 T00451008  RH  069%=      5-min Rain = 0
KREE 181435Z 21007KT 05/M01 A2983 RMK A01 T00491006  RH  068%=      5-min Rain = 0
KREE 181440Z 21008KT 05/M00 A2983 RMK A01 T00531004  RH  067%=      5-min Rain = 0
KREE 181445Z 22007KT 06/M00 A2983 RMK A01 T00561003  RH  066%=      5-min Rain = 0
KREE 181450Z 23007KT 06/M00 A2983 RMK A01 T00611001  RH  065%=      5-min Rain = 0
KREE 181455Z 21009KT 06/M00 A2984 RMK A01 T00621001  RH  065%=      5-min Rain = 0
KREE 181500Z 23008KT 07/00 A2983 RMK A01 T006500-0  RH  064%=      5-min Rain = 0
KREE 181505Z 24008KT 07/00 A2984 RMK A01 T00700002  RH  062%=      5-min Rain = 0
KREE 181510Z 24008KT 08/00 A2983 RMK A01 T00760004  RH  061%=      5-min Rain = 0
KREE 181515Z 24009KT 08/01 A2983 RMK A01 T00830006  RH  059%=      5-min Rain = 0
KREE 181520Z 24008KT 09/01 A2982 RMK A01 T00900007  RH  057%=      5-min Rain = 0
KREE 181525Z 24010KT 10/01 A2982 RMK A01 T00980008  RH  054%=      5-min Rain = 0
KREE 181530Z 24009KT 11/01 A2982 RMK A01 T01060010  RH  052%=      5-min Rain = 0
KREE 181535Z 26012G17KT 12/01 A2982 RMK A01 T01180010  RH  048%=      5-min Rain = 0
KREE 181540Z 26016KT 13/01 A2982 RMK A01 T01320006  RH  043%=      5-min Rain = 0
KREE 181545Z 26018G23KT 14/00 A2981 RMK A01 T01380002  RH  040%=      5-min Rain = 0
KREE 181550Z 26018G25KT 14/00 A2981 RMK A01 T01400001  RH  039%=      5-min Rain = 0
KREE 181555Z 26019KT 14/00 A2981 RMK A01 T01410001  RH  039%=      5-min Rain = 0
KREE 181600Z 26019G25KT 14/00 A2981 RMK A01 T01400000  RH  039%=      5-min Rain = 0
KREE 181605Z 25019G24KT 14/00 A298 RMK A01 T014000-0  RH  039%=      5-min Rain = 0
KREE 181610Z 25020G26KT 14/00 A298 RMK A01 T01410000  RH  039%=      5-min Rain = 0
KREE 181615Z 26018G23KT 14/00 A2981 RMK A01 T01440001  RH  038%=      5-min Rain = 0
KREE 181620Z 26017KT 15/00 A298 RMK A01 T01470002  RH  038%=      5-min Rain = 0
KREE 181625Z 26017KT 15/00 A298 RMK A01 T01490002  RH  037%=      5-min Rain = 0
KREE 181630Z 25018G24KT 15/00 A298 RMK A01 T01530001  RH  036%=      5-min Rain = 0
KREE 181635Z 26018G23KT 16/00 A298 RMK A01 T01560001  RH  035%=      5-min Rain = 0
KREE 181640Z 26019G25KT 16/00 A298 RMK A01 T01610001  RH  034%=      5-min Rain = 0
KREE 181645Z 26021G26KT 16/00 A298 RMK A01 T016200-0  RH  033%=      5-min Rain = 0
KREE 181650Z 26017G22KT 17/00 A298 RMK A01 T01680001  RH  033%=      5-min Rain = 0
KREE 181655Z 25018G24KT 18/00 A298 RMK A01 T01750000  RH  031%=      5-min Rain = 0
KREE 181700Z 26020G26KT 18/M00 A2979 RMK A01 T01781002  RH  030%=      5-min Rain = 0
KREE 181705Z 26023G29KT 18/M01 A2979 RMK A01 T01801008  RH  028%=      5-min Rain = 0
KREE 181710Z 26023G31KT 18/M01 A2979 RMK A01 T01831010  RH  027%=      5-min Rain = 0
KREE 181715Z 26026G33KT 18/M01 A2979 RMK A01 T01841011  RH  027%=      5-min Rain = 0
KREE 181720Z 26026G31KT 18/M01 A2979 RMK A01 T01841012  RH  027%=      5-min Rain = 0
KREE 181725Z 26024G30KT 18/M01 A2979 RMK A01 T01821013  RH  027%=      5-min Rain = 0
KREE 181730Z 26023G30KT 18/M01 A2979 RMK A01 T01811013  RH  027%=      5-min Rain = 0
KREE 181735Z 26023G30KT 18/M02 A2979 RMK A01 T01781015  RH  027%=      5-min Rain = 0
KREE 181740Z 26022G29KT 18/M01 A2978 RMK A01 T01791013  RH  027%=      5-min Rain = 0
KREE 181745Z 26020KT 18/M01 A2978 RMK A01 T01791012  RH  028%=      5-min Rain = 0
KREE 181750Z 26020G30KT 18/M01 A2977 RMK A01 T01781011  RH  028%=      5-min Rain = 0
KREE 181755Z 26023G28KT 18/M01 A2977 RMK A01 T01761012  RH  028%=      5-min Rain = 0
KREE 181800Z 26019G25KT 18/M01 A2977 RMK A01 T01781010  RH  028%=      5-min Rain = 0
KREE 181805Z 26020G26KT 18/M01 A2977 RMK A01 T01791010  RH  028%=      5-min Rain = 0
KREE 181810Z 27023G32KT 18/M01 A2976 RMK A01 T01791008  RH  028%=      5-min Rain = 0
KREE 181815Z 28024G31KT 18/M01 A2976 RMK A01 T01791006  RH  029%=      5-min Rain = 0
KREE 181820Z 28025G30KT 18/M01 A2976 RMK A01 T01811005  RH  029%=      5-min Rain = 0
KREE 181825Z 28023G28KT 18/M00 A2975 RMK A01 T01831003  RH  029%=      5-min Rain = 0
KREE 181830Z 28024G33KT 19/M00 A2975 RMK A01 T01861001  RH  029%=      5-min Rain = 0
KREE 181835Z 28024G34KT 19/M00 A2974 RMK A01 T01851001  RH  029%=      5-min Rain = 0
KREE 181840Z 28027G32KT 19/M00 A2974 RMK A01 T01891001  RH  028%=      5-min Rain = 0
KREE 181845Z 28026G35KT 19/M00 A2973 RMK A01 T01931001  RH  027%=      5-min Rain = 0
KREE 181850Z 26023G31KT 19/M00 A2972 RMK A01 T01941004  RH  027%=      5-min Rain = 0
KREE 181855Z 27024G31KT 19/M01 A2972 RMK A01 T01911005  RH  027%=      5-min Rain = 0
KREE 181900Z 28027G35KT 19/M00 A2972 RMK A01 T01931004  RH  027%=      5-min Rain = 0
KREE 181905Z 28027G35KT 19/M00 A2972 RMK A01 T01921004  RH  027%=      5-min Rain = 0
KREE 181910Z 28027G36KT 19/M00 A2972 RMK A01 T01941004  RH  027%=      5-min Rain = 0
KREE 181915Z 28028G33KT 19/M01 A2971 RMK A01 T01941006  RH  026%=      5-min Rain = 0
KREE 181920Z 28025G35KT 19/M01 A2971 RMK A01 T01941005  RH  026%=      5-min Rain = 0
KREE 181925Z 26029G35KT 20/M01 A297 RMK A01 T01951006  RH  026%=      5-min Rain = 0
KREE 181930Z 26026G36KT 20/M01 A297 RMK A01 T01951006  RH  026%=      5-min Rain = 0
KREE 181935Z 26026G32KT 20/M01 A2969 RMK A01 T01951009  RH  026%=      5-min Rain = 0
KREE 181940Z 27023G31KT 19/M01 A2969 RMK A01 T01941012  RH  025%=      5-min Rain = 0
KREE 181945Z 28021G27KT 19/M01 A2969 RMK A01 T01871008  RH  027%=      5-min Rain = 0
KREE 181950Z 27024G31KT 19/M01 A2968 RMK A01 T01891007  RH  027%=      5-min Rain = 0
KREE 181955Z 26023G34KT 19/M01 A2968 RMK A01 T01911008  RH  026%=      5-min Rain = 0
KREE 182000Z 26028G37KT 19/M01 A2968 RMK A01 T01921013  RH  025%=      5-min Rain = 0
KREE 182005Z 26028G40KT 19/M01 A2967 RMK A01 T01931011  RH  025%=      5-min Rain = 0
KREE 182010Z 26029G37KT 19/M01 A2967 RMK A01 T01941014  RH  025%=      5-min Rain = 0
KREE 182015Z 27028G39KT 20/M01 A2967 RMK A01 T01971014  RH  024%=      5-min Rain = 0
KREE 182020Z 27029G36KT 19/M02 A2968 RMK A01 T01931015  RH  025%=      5-min Rain = 0
KREE 182025Z 27030G42KT 19/M01 A2967 RMK A01 T01921010  RH  026%=      5-min Rain = 0
KREE 182030Z 28030G36KT 19/M00 A2967 RMK A01 T01861002  RH  028%=      5-min Rain = 0
KREE 182035Z 28031G40KT 19/M01 A2968 RMK A01 T01881010  RH  027%=      5-min Rain = 0
KREE 182040Z 28030G38KT 19/M01 A2968 RMK A01 T01891011  RH  026%=      5-min Rain = 0
KREE 182045Z 28029G40KT 19/M01 A2968 RMK A01 T01871011  RH  026%=      5-min Rain = 0
KREE 182050Z 28030G39KT 19/M01 A2968 RMK A01 T01861008  RH  027%=      5-min Rain = 0
KREE 182055Z 28028G37KT 19/M00 A2968 RMK A01 T01851002  RH  029%=      5-min Rain = 0
KREE 182100Z 27029G46KT 19/00 A2968 RMK A01 T01860001  RH  029%=      5-min Rain = 0
KREE 182105Z 27029G44KT 18/01 A2968 RMK A01 T01840006  RH  030%=      5-min Rain = 0
KREE 182110Z 27030G38KT 18/01 A2968 RMK A01 T01770005  RH  032%=      5-min Rain = 0
KREE 182115Z 27024G34KT 18/00 A2969 RMK A01 T01750003  RH  032%=      5-min Rain = 0
KREE 182120Z 27027G37KT 17/00 A2968 RMK A01 T01720000  RH  032%=      5-min Rain = 0
KREE 182125Z 27028G39KT 17/00 A2968 RMK A01 T01670001  RH  033%=      5-min Rain = 0
KREE 182130Z 27029G35KT 17/00 A2968 RMK A01 T01680001  RH  033%=      5-min Rain = 0
KREE 182135Z 27027G34KT 17/00 A2968 RMK A01 T01710003  RH  032%=      5-min Rain = 0
KREE 182140Z 28028G35KT 17/00 A2968 RMK A01 T01700002  RH  032%=      5-min Rain = 0
KREE 182145Z 27029G34KT 17/M01 A2968 RMK A01 T01701007  RH  030%=      5-min Rain = 0
KREE 182150Z 26029G38KT 17/M01 A2968 RMK A01 T01711013  RH  029%=      5-min Rain = 0
KREE 182155Z 27027G36KT 17/M02 A2968 RMK A01 T01721017  RH  028%=      5-min Rain = 0
KREE 182200Z 27026G33KT 17/M02 A2968 RMK A01 T01721021  RH  027%=      5-min Rain = 0
KREE 182205Z 27026G35KT 17/M03 A2969 RMK A01 T01691027  RH  026%=      5-min Rain = 0
KREE 182210Z 27027G34KT 16/M03 A2969 RMK A01 T01611033  RH  026%=      5-min Rain = 0
KREE 182215Z 27025G33KT 16/M03 A2969 RMK A01 T01581034  RH  027%=      5-min Rain = 0
KREE 182220Z 27022G28KT 16/M03 A2969 RMK A01 T01591031  RH  027%=      5-min Rain = 0
KREE 182225Z 27023G33KT 16/M03 A2969 RMK A01 T01591034  RH  027%=      5-min Rain = 0
KREE 182230Z 27022G32KT 16/M04 A2969 RMK A01 T01581036  RH  026%=      5-min Rain = 0
KREE 182235Z 27023G28KT 16/M04 A2969 RMK A01 T01571037  RH  026%=      5-min Rain = 0
KREE 182240Z 26023G30KT 16/M04 A2969 RMK A01 T01551037  RH  027%=      5-min Rain = 0
KREE 182245Z 26024G33KT 15/M05 A2969 RMK A01 T01531046  RH  025%=      5-min Rain = 0
KREE 182250Z 26025G33KT 15/M05 A2969 RMK A01 T01521053  RH  024%=      5-min Rain = 0
KREE 182255Z 26021G30KT 15/M05 A2969 RMK A01 T01511053  RH  024%=      5-min Rain = 0
KREE 182300Z 26021G28KT 15/M05 A2969 RMK A01 T01501053  RH  025%=      5-min Rain = 0
KREE 182305Z 25021G27KT 15/M05 A2969 RMK A01 T01501051  RH  025%=      5-min Rain = 0
KREE 182310Z 26020G29KT 15/M05 A2969 RMK A01 T01541051  RH  024%=      5-min Rain = 0
KREE 182315Z 25019G29KT 16/M05 A2968 RMK A01 T01591051  RH  023%=      5-min Rain = 0
KREE 182320Z 25017KT 16/M05 A2967 RMK A01 T01571054  RH  023%=      5-min Rain = 0
KREE 182325Z 26017G24KT 15/M06 A2967 RMK A01 T01511056  RH  024%=      5-min Rain = 0
KREE 182330Z 26019G24KT 15/M06 A2968 RMK A01 T01491057  RH  024%=      5-min Rain = 0
KREE 182335Z 26019G24KT 15/M06 A2968 RMK A01 T01471061  RH  024%=      5-min Rain = 0
KREE 182340Z 28023G35KT 15/M07 A2969 RMK A01 T01461068  RH  022%=      5-min Rain = 0
KREE 182345Z 28031G39KT 15/M08 A2969 RMK A01 T01451078  RH  021%=      5-min Rain = 0
KREE 182350Z 29027G39KT 14/M08 A297 RMK A01 T01411078  RH  022%=      5-min Rain = 0
KREE 182355Z 28026G32KT 14/M07 A297 RMK A01 T01381074  RH  022%=      5-min Rain = 0
KREE 190000Z 29024G31KT 14/M07 A297 RMK A01 T01371072  RH  023%=      5-min Rain = 0
KREE 190005Z 29026G33KT 14/M07 A297 RMK A01 T01351073  RH  023%=      5-min Rain = 0
KREE 190010Z 29024G33KT 13/M07 A297 RMK A01 T01321072  RH  024%=      5-min Rain = 0
KREE 190015Z 29024G30KT 13/M07 A297 RMK A01 T01301067  RH  025%=      5-min Rain = 0
KREE 190020Z 29023G28KT 13/M07 A297 RMK A01 T01281066  RH  026%=      5-min Rain = 0
KREE 190025Z 28021G29KT 13/M06 A297 RMK A01 T01271064  RH  026%=      5-min Rain = 0
KREE 190030Z 28020G26KT 13/M06 A297 RMK A01 T01271063  RH  026%=      5-min Rain = 0
KREE 190035Z 28018G24KT 13/M06 A297 RMK A01 T01251064  RH  026%=      5-min Rain = 0
KREE 190040Z 28017G24KT 12/M06 A297 RMK A01 T01231063  RH  027%=      5-min Rain = 0
KREE 190045Z 28019KT 12/M06 A297 RMK A01 T01221061  RH  028%=      5-min Rain = 0
KREE 190050Z 28022G29KT 12/M06 A297 RMK A01 T01241061  RH  027%=      5-min Rain = 0
KREE 190055Z 29023G32KT 12/M06 A297 RMK A01 T01241061  RH  027%=      5-min Rain = 0
KREE 190100Z 31033G48KT 12/M05 A2972 RMK A01 T01231046  RH  031%=      5-min Rain = 0
KREE 190105Z 34036G50KT 11/M02 A2974 RMK A01 T01101015  RH  042%=      5-min Rain = 0
KREE 190110Z 34030G41KT 11/M01 A2975 RMK A01 T01051013  RH  044%=      5-min Rain = 0
KREE 190115Z 34029G35KT 10/M01 A2976 RMK A01 T01011012  RH  046%=      5-min Rain = 0
KREE 190120Z 34029G36KT 10/M01 A2977 RMK A01 T00981011  RH  047%=      5-min Rain = 0
KREE 190125Z 33029G40KT 09/M01 A2979 RMK A01 T00941008  RH  049%=      5-min Rain = 0
KREE 190130Z 33033G40KT 09/00 A298 RMK A01 T00860002  RH  056%=      5-min Rain = 0
KREE 190135Z 33034G44KT 08/01 A298 RMK A01 T00840006  RH  059%=      5-min Rain = 0
KREE 190140Z 33034G43KT 08/01 A2981 RMK A01 T00840008  RH  060%=      5-min Rain = 0
KREE 190145Z 33033G41KT 08/02 A2982 RMK A01 T00750023  RH  071%=      5-min Rain = 0
KREE 190150Z 33027G34KT 07/03 A2984 RMK A01 T00690031  RH  077%=      5-min Rain = 0
KREE 190155Z 32024G32KT 07/03 A2984 RMK A01 T00690032  RH  079%=      5-min Rain = 0
KREE 190200Z 33022G27KT 07/04 A2984 RMK A01 T00650036  RH  083%=      5-min Rain = 0
KREE 190205Z 33027G37KT 06/04 A2984 RMK A01 T00620035  RH  084%=      5-min Rain = 0
KREE 190210Z 33030G37KT 06/03 A2985 RMK A01 T00580029  RH  083%=      5-min Rain = 0
KREE 190215Z 33030G37KT 06/03 A2985 RMK A01 T00570027  RH  082%=      5-min Rain = 0
KREE 190220Z 34026G34KT 05/03 A2986 RMK A01 T00540028  RH  084%=      5-min Rain = 0
KREE 190225Z 34023G29KT 05/03 A2986 RMK A01 T00510028  RH  086%=      5-min Rain = 0
KREE 190230Z 33023G31KT 05/03 A2987 RMK A01 T00510028  RH  086%=      5-min Rain = 0
KREE 190235Z 33023G31KT 05/03 A2987 RMK A01 T00490026  RH  086%=      5-min Rain = 0
KREE 190240Z 34024G30KT 05/02 A2988 RMK A01 T00470022  RH  085%=      5-min Rain = 0
KREE 190245Z 34024G30KT 05/02 A2988 RMK A01 T00460021  RH  085%=      5-min Rain = 0
KREE 190250Z 34026G33KT 05/02 A2989 RMK A01 T00450019  RH  084%=      5-min Rain = 0
KREE 190255Z 34024G31KT 04/02 A299 RMK A01 T00440018  RH  084%=      5-min Rain = 0
KREE 190300Z 34023G29KT 04/02 A299 RMK A01 T00430018  RH  085%=      5-min Rain = 0
KREE 190305Z 35023G29KT 04/02 A2991 RMK A01 T00430017  RH  085%=      5-min Rain = 0
KREE 190310Z 35023G28KT 04/01 A2992 RMK A01 T00400014  RH  084%=      5-min Rain = 0
KREE 190315Z 35022G30KT 04/01 A2992 RMK A01 T00390012  RH  084%=      5-min Rain = 0
KREE 190320Z 35023G30KT 04/01 A2993 RMK A01 T00380009  RH  082%=      5-min Rain = 0
KREE 190325Z 35027G36KT 04/01 A2993 RMK A01 T00370005  RH  080%=      5-min Rain = 0
KREE 190330Z 35029G37KT 03/M00 A2994 RMK A01 T00341004  RH  077%=      5-min Rain = 0
KREE 190335Z 35025G32KT 03/M01 A2994 RMK A01 T00311005  RH  078%=      5-min Rain = 0
KREE 190340Z 35025G31KT 03/M01 A2995 RMK A01 T00301007  RH  078%=      5-min Rain = 0
KREE 190345Z 35024G29KT 03/M01 A2995 RMK A01 T00271011  RH  077%=      5-min Rain = 0
KREE 190350Z 35028G33KT 03/M01 A2996 RMK A01 T00261010  RH  078%=      5-min Rain = 0
KREE 190355Z 35024G31KT 03/M01 A2996 RMK A01 T00251010  RH  078%=      5-min Rain = 0
KREE 190400Z 35027G35KT 03/M01 A2997 RMK A01 T00261009  RH  078%=      5-min Rain = 0
KREE 190405Z 35027G35KT 03/M01 A2997 RMK A01 T00271009  RH  078%=      5-min Rain = 0
KREE 190410Z 35029G36KT 03/M01 A2998 RMK A01 T00281008  RH  079%=      5-min Rain = 0
KREE 190415Z 34030G41KT 03/M01 A2998 RMK A01 T00281011  RH  076%=      5-min Rain = 0
KREE 190420Z 35033G44KT 03/M02 A2999 RMK A01 T00251023  RH  071%=      5-min Rain = 0
KREE 190425Z 35028G37KT 02/M03 A2999 RMK A01 T00221025  RH  072%=      5-min Rain = 0
KREE 190430Z 35026G35KT 02/M02 A2999 RMK A01 T00221023  RH  073%=      5-min Rain = 0
KREE 190435Z 35029G37KT 02/M02 A30 RMK A01 T00211021  RH  074%=      5-min Rain = 0
KREE 190440Z 34027G34KT 02/M02 A30 RMK A01 T00191016  RH  079%=      5-min Rain = 0
KREE 190445Z 34025G34KT 02/M01 A30 RMK A01 T00161011  RH  083%=      5-min Rain = 0
KREE 190450Z 33023G30KT 01/M01 A3001 RMK A01 T00121008  RH  088%=      5-min Rain = 0
KREE 190455Z 34022G27KT 01/M01 A3001 RMK A01 T00111006  RH  090%=      5-min Rain = 0
KREE 190500Z 34022KT 01/M01 A3001 RMK A01 T00121007  RH  088%=      5-min Rain = 0
KREE 190505Z 34024G32KT 01/M01 A3002 RMK A01 T00131008  RH  087%=      5-min Rain = 0
KREE 190510Z 34023G30KT 01/M01 A3002 RMK A01 T00141009  RH  086%=      5-min Rain = 0
KREE 190515Z 34025G30KT 01/M01 A3003 RMK A01 T00141009  RH  086%=      5-min Rain = 0
KREE 190520Z 34025G31KT 01/M01 A3003 RMK A01 T00131009  RH  087%=      5-min Rain = 0
KREE 190525Z 35024G31KT 01/M01 A3004 RMK A01 T00121008  RH  088%=      5-min Rain = 0
KREE 190530Z 35023G29KT 01/M01 A3004 RMK A01 T00101006  RH  090%=      5-min Rain = 0
KREE 190535Z 34020G25KT 01/M01 A3005 RMK A01 T00091005  RH  091%=      5-min Rain = 0
KREE 190540Z 34018G24KT 01/M00 A3005 RMK A01 T00101004  RH  092%=      5-min Rain = 0
KREE 190545Z 35019G26KT 01/M00 A3005 RMK A01 T00111003  RH  091%=      5-min Rain = 0
KREE 190550Z 35019G25KT 01/M00 A3006 RMK A01 T00111004  RH  091%=      5-min Rain = 0
KREE 190555Z 35021KT 01/M01 A3006 RMK A01 T00111005  RH  090%=      5-min Rain = 0

Page generated in 0.0097 seconds.